createdAt,value
2023-01-30T00:00:06.087Z,70.12
2023-01-30T00:03:15.831Z,69.99
2023-01-30T00:06:25.641Z,70.12
2023-01-30T00:09:31.416Z,70.28
2023-01-30T00:12:37.975Z,70.38
2023-01-30T00:15:45.199Z,70.57
2023-01-30T00:18:54.878Z,70.70
2023-01-30T00:22:00.764Z,70.87
2023-01-30T00:25:08.965Z,70.72
2023-01-30T00:28:14.965Z,70.79
2023-01-30T00:31:21.601Z,71.78
2023-01-30T00:34:31.894Z,72.13
2023-01-30T00:37:38.696Z,72.88
2023-01-30T00:40:45.021Z,73.42
2023-01-30T00:44:04.041Z,73.76
2023-01-30T00:47:09.919Z,74.18
2023-01-30T00:50:19.702Z,74.00
2023-01-30T00:53:25.640Z,74.88
2023-01-30T00:56:32.257Z,74.81
2023-01-30T00:59:38.010Z,74.53
2023-01-30T01:02:46.463Z,75.15
2023-01-30T01:05:55.162Z,75.14
2023-01-30T01:09:01.840Z,75.52
2023-01-30T01:12:09.869Z,75.75
2023-01-30T01:15:18.275Z,76.11
2023-01-30T01:18:26.557Z,76.03
2023-01-30T01:21:42.943Z,76.30
2023-01-30T01:24:53.042Z,77.04
2023-01-30T01:27:59.659Z,77.06
2023-01-30T01:31:12.761Z,76.99
2023-01-30T01:34:20.911Z,77.65
2023-01-30T01:37:29.663Z,77.81
2023-01-30T01:40:48.640Z,77.81
2023-01-30T01:44:08.972Z,77.88
2023-01-30T01:47:21.920Z,77.67
2023-01-30T01:50:41.661Z,77.61
2023-01-30T01:54:00.922Z,77.40
2023-01-30T01:57:16.800Z,77.74
2023-01-30T02:00:25.501Z,77.97
2023-01-30T02:03:40.845Z,77.91
2023-01-30T02:06:47.572Z,78.24
2023-01-30T02:09:56.936Z,78.05
2023-01-30T02:13:04.066Z,77.81
2023-01-30T02:16:12.120Z,77.66
2023-01-30T02:19:37.275Z,77.55
2023-01-30T02:23:36.635Z,77.23
2023-01-30T02:27:44.313Z,77.05
2023-01-30T02:31:24.516Z,77.37
2023-01-30T02:34:53.744Z,77.07
2023-01-30T02:38:24.337Z,76.95
2023-01-30T02:41:46.768Z,76.96
2023-01-30T02:45:22.107Z,76.83
2023-01-30T02:48:42.597Z,76.58
2023-01-30T02:51:54.305Z,76.46
2023-01-30T02:55:00.121Z,76.34
2023-01-30T02:58:08.575Z,76.53
2023-01-30T03:01:57.530Z,76.18
2023-01-30T03:05:39.289Z,76.01
2023-01-30T03:09:10.676Z,75.87
2023-01-30T03:12:30.298Z,75.81
2023-01-30T03:15:44.673Z,75.36
2023-01-30T03:18:52.754Z,75.13
2023-01-30T03:22:02.657Z,74.89
2023-01-30T03:25:12.383Z,75.13
2023-01-30T03:28:23.809Z,74.64
2023-01-30T03:31:30.651Z,74.64
2023-01-30T03:34:37.031Z,74.71
2023-01-30T03:37:47.180Z,74.57
2023-01-30T03:40:53.380Z,74.76
2023-01-30T03:44:00.284Z,74.46
2023-01-30T03:47:06.810Z,74.28
2023-01-30T03:50:14.845Z,74.57
2023-01-30T03:53:26.388Z,74.83
2023-01-30T03:56:34.407Z,74.31
2023-01-30T03:59:40.592Z,74.11
2023-01-30T04:02:49.763Z,74.43
2023-01-30T04:05:56.844Z,73.86
2023-01-30T04:09:06.610Z,73.87
2023-01-30T04:12:20.913Z,73.97
2023-01-30T04:15:33.925Z,73.89
2023-01-30T04:18:59.990Z,73.42
2023-01-30T04:22:10.459Z,73.71
2023-01-30T04:25:20.159Z,73.74
2023-01-30T04:28:27.223Z,73.73
2023-01-30T04:31:33.248Z,73.48
2023-01-30T04:34:54.775Z,73.88
2023-01-30T04:38:01.109Z,73.91
2023-01-30T04:41:10.767Z,73.41
2023-01-30T04:44:20.037Z,73.02
2023-01-30T04:47:40.030Z,73.08
2023-01-30T04:50:50.149Z,73.00
2023-01-30T04:53:56.859Z,73.28
2023-01-30T04:57:11.971Z,72.97
2023-01-30T05:00:26.332Z,72.74
2023-01-30T05:03:37.062Z,72.48
2023-01-30T05:06:43.855Z,72.56
2023-01-30T05:09:50.384Z,71.98
2023-01-30T05:12:59.848Z,71.72
2023-01-30T05:16:06.995Z,71.73
2023-01-30T05:19:16.377Z,71.66
2023-01-30T05:22:22.215Z,71.50
2023-01-30T05:25:28.914Z,71.68
2023-01-30T05:28:37.506Z,71.03
2023-01-30T05:31:44.529Z,71.11
2023-01-30T05:34:52.668Z,71.13
2023-01-30T05:38:02.375Z,70.78
2023-01-30T05:41:19.879Z,70.71
2023-01-30T05:44:33.005Z,70.57
2023-01-30T05:47:38.776Z,70.27
2023-01-30T05:50:45.427Z,70.01
2023-01-30T05:53:51.867Z,70.21
2023-01-30T05:56:58.425Z,70.22
2023-01-30T06:00:08.208Z,70.04
2023-01-30T06:03:19.715Z,70.18
2023-01-30T06:06:26.772Z,70.19
2023-01-30T06:09:33.457Z,70.15
2023-01-30T06:12:39.454Z,70.02
2023-01-30T06:15:49.275Z,69.60
2023-01-30T06:19:04.984Z,69.81
2023-01-30T06:22:11.521Z,69.75
2023-01-30T06:25:17.755Z,69.64
2023-01-30T06:28:26.698Z,69.70
2023-01-30T06:31:37.407Z,69.65
2023-01-30T06:34:44.063Z,69.58
2023-01-30T06:37:49.844Z,69.14
2023-01-30T06:40:56.475Z,69.21
2023-01-30T06:44:02.247Z,68.80
2023-01-30T06:47:11.440Z,68.75
2023-01-30T06:50:19.597Z,68.56
2023-01-30T06:53:30.979Z,68.63
2023-01-30T06:56:36.789Z,68.33
2023-01-30T06:59:43.424Z,68.08
2023-01-30T07:02:56.235Z,68.44
2023-01-30T07:06:02.904Z,68.33
2023-01-30T07:09:08.640Z,68.42
2023-01-30T07:12:15.209Z,68.04
2023-01-30T07:15:21.386Z,68.21
2023-01-30T07:18:33.875Z,67.96
2023-01-30T07:21:39.616Z,68.72
2023-01-30T07:24:46.193Z,68.79
2023-01-30T07:27:55.128Z,69.05
2023-01-30T07:31:03.837Z,68.68
2023-01-30T07:34:12.257Z,68.30
2023-01-30T07:37:19.050Z,68.32
2023-01-30T07:40:26.408Z,67.91
2023-01-30T07:43:33.035Z,68.42
2023-01-30T07:46:38.901Z,68.33
2023-01-30T07:49:49.100Z,68.40
2023-01-30T07:52:55.322Z,68.23
2023-01-30T07:56:02.512Z,68.11
2023-01-30T07:59:08.555Z,68.34
2023-01-30T08:02:15.159Z,68.41
2023-01-30T08:05:23.720Z,68.39
2023-01-30T08:08:30.477Z,67.78
2023-01-30T08:11:36.353Z,67.77
2023-01-30T08:14:43.055Z,67.65
2023-01-30T08:17:57.115Z,67.48
2023-01-30T08:21:20.120Z,67.17
2023-01-30T08:24:26.761Z,65.77
2023-01-30T08:27:33.322Z,63.38
2023-01-30T08:30:39.056Z,61.29
2023-01-30T08:33:45.775Z,61.95
2023-01-30T08:36:54.746Z,62.73
2023-01-30T08:40:01.466Z,63.47
2023-01-30T08:43:08.662Z,64.71
2023-01-30T08:46:17.606Z,65.04
2023-01-30T08:49:23.390Z,65.30
2023-01-30T08:52:32.634Z,65.89
2023-01-30T08:55:38.631Z,66.44
2023-01-30T08:58:46.817Z,66.42
2023-01-30T09:01:52.542Z,65.88
2023-01-30T09:04:59.125Z,66.53
2023-01-30T09:08:11.423Z,66.72
2023-01-30T09:11:19.068Z,66.37
2023-01-30T09:14:25.723Z,65.82
2023-01-30T09:17:39.014Z,65.69
2023-01-30T09:20:46.980Z,66.78
2023-01-30T09:24:02.174Z,66.78
2023-01-30T09:27:11.036Z,66.76
2023-01-30T09:30:19.014Z,67.29
2023-01-30T09:33:25.099Z,67.25
2023-01-30T09:36:31.658Z,67.25
2023-01-30T09:39:46.511Z,66.88
2023-01-30T09:43:22.171Z,67.03
2023-01-30T09:46:49.756Z,67.65
2023-01-30T09:50:17.245Z,67.52
2023-01-30T09:53:37.523Z,67.54
2023-01-30T09:56:49.707Z,67.50
2023-01-30T10:00:08.649Z,68.27
2023-01-30T10:03:27.352Z,68.80
2023-01-30T10:06:56.989Z,70.25
2023-01-30T10:10:29.039Z,70.51
2023-01-30T10:14:18.823Z,71.14
2023-01-30T10:17:47.327Z,71.67
2023-01-30T10:21:17.904Z,72.22
2023-01-30T10:24:48.257Z,73.81
2023-01-30T10:28:04.616Z,74.05
2023-01-30T10:31:19.590Z,74.82
2023-01-30T10:34:35.964Z,76.31
2023-01-30T10:37:58.560Z,76.00
2023-01-30T10:41:20.788Z,76.06
2023-01-30T10:44:28.358Z,76.04
2023-01-30T10:48:00.669Z,75.70
2023-01-30T10:51:25.471Z,75.33
2023-01-30T10:54:42.103Z,75.07
2023-01-30T10:58:07.788Z,74.79
2023-01-30T11:01:27.845Z,74.95
2023-01-30T11:04:56.462Z,75.45
2023-01-30T11:08:02.281Z,75.23
2023-01-30T11:11:31.067Z,74.55
2023-01-30T11:14:59.525Z,74.95
2023-01-30T11:18:49.736Z,74.91
2023-01-30T11:21:44.511Z,74.43
2023-01-30T11:24:51.463Z,75.20
2023-01-30T11:28:08.053Z,75.02
2023-01-30T11:31:38.918Z,75.33
2023-01-30T11:34:47.643Z,75.32
2023-01-30T11:37:57.234Z,75.56
2023-01-30T11:41:23.792Z,74.93
2023-01-30T11:44:34.525Z,74.96
2023-01-30T11:47:43.233Z,75.28
2023-01-30T11:51:07.216Z,74.90
2023-01-30T11:54:29.765Z,75.02
2023-01-30T11:57:48.930Z,75.08
2023-01-30T12:00:55.036Z,74.49
2023-01-30T12:04:04.223Z,74.50
2023-01-30T12:07:22.595Z,74.02
2023-01-30T12:10:34.839Z,74.02
2023-01-30T12:13:46.735Z,73.70
2023-01-30T12:17:26.565Z,73.69
2023-01-30T12:20:59.061Z,73.47
2023-01-30T12:24:28.844Z,73.15
2023-01-30T12:28:07.606Z,72.66
2023-01-30T12:31:24.831Z,72.45
2023-01-30T12:34:30.691Z,73.08
2023-01-30T12:38:03.488Z,73.19
2023-01-30T12:41:33.366Z,74.08
2023-01-30T12:45:15.244Z,75.86
2023-01-30T12:49:10.218Z,76.56
2023-01-30T12:52:57.729Z,79.53
2023-01-30T12:56:42.094Z,80.59
2023-01-30T13:00:15.474Z,80.71
2023-01-30T13:03:38.946Z,80.18
2023-01-30T13:07:13.727Z,80.84
2023-01-30T13:10:33.777Z,80.63
2023-01-30T13:13:55.591Z,80.07
2023-01-30T13:17:27.853Z,78.75
2023-01-30T13:21:00.526Z,77.72
2023-01-30T13:24:27.543Z,77.44
2023-01-30T13:27:43.193Z,76.99
2023-01-30T13:30:55.339Z,76.46
2023-01-30T13:34:13.232Z,75.30
2023-01-30T13:37:21.377Z,75.19
2023-01-30T13:40:39.173Z,74.46
2023-01-30T13:43:54.945Z,74.27
2023-01-30T13:47:18.560Z,73.92
2023-01-30T13:51:02.133Z,73.87
2023-01-30T13:54:37.176Z,74.04
2023-01-30T13:58:00.516Z,74.07
2023-01-30T14:01:15.601Z,73.76
2023-01-30T14:04:51.301Z,72.95
2023-01-30T14:08:00.836Z,73.43
2023-01-30T14:11:07.160Z,73.91
2023-01-30T14:14:36.847Z,74.09
2023-01-30T14:17:59.425Z,73.96
2023-01-30T14:21:21.437Z,74.30
2023-01-30T14:24:31.890Z,74.21
2023-01-30T14:27:38.566Z,74.56
2023-01-30T14:30:52.667Z,74.21
2023-01-30T14:33:59.252Z,74.61
2023-01-30T14:37:05.284Z,74.46
2023-01-30T14:40:51.677Z,74.58
2023-01-30T14:43:57.691Z,74.70
2023-01-30T14:47:35.155Z,75.24
2023-01-30T14:50:31.021Z,74.96
2023-01-30T14:53:38.256Z,75.21
2023-01-30T14:56:56.772Z,75.03
2023-01-30T15:00:19.568Z,74.75
2023-01-30T15:03:25.557Z,74.95
2023-01-30T15:06:39.207Z,75.19
2023-01-30T15:09:56.551Z,75.07
2023-01-30T15:13:54.156Z,75.39
2023-01-30T15:17:33.140Z,75.42
2023-01-30T15:21:16.129Z,75.36
2023-01-30T15:25:10.945Z,75.59
2023-01-30T15:28:43.251Z,75.64
2023-01-30T15:31:58.121Z,76.11
2023-01-30T15:35:24.670Z,76.96
2023-01-30T15:38:34.023Z,77.31
2023-01-30T15:41:43.316Z,77.41
2023-01-30T15:45:09.889Z,77.70
2023-01-30T15:48:54.430Z,77.36
2023-01-30T15:52:07.199Z,77.65
2023-01-30T15:55:23.508Z,77.28
2023-01-30T15:58:30.891Z,77.16
2023-01-30T16:01:41.790Z,77.12
2023-01-30T16:04:47.854Z,77.37
2023-01-30T16:07:57.729Z,76.95
2023-01-30T16:11:04.094Z,76.81
2023-01-30T16:14:18.299Z,76.70
2023-01-30T16:17:29.155Z,76.64
2023-01-30T16:21:00.790Z,76.40
2023-01-30T16:24:16.487Z,76.34
2023-01-30T16:27:32.677Z,75.86
2023-01-30T16:30:49.190Z,76.05
2023-01-30T16:33:58.885Z,76.23
2023-01-30T16:37:10.594Z,76.08
2023-01-30T16:40:24.744Z,75.93
2023-01-30T16:43:35.076Z,75.89
2023-01-30T16:47:05.929Z,76.20
2023-01-30T16:50:24.296Z,76.50
2023-01-30T16:53:36.313Z,76.80
2023-01-30T16:56:50.931Z,76.69
2023-01-30T16:59:59.244Z,76.64
2023-01-30T17:03:11.244Z,76.90
2023-01-30T17:06:33.126Z,76.95
2023-01-30T17:09:48.756Z,77.37
2023-01-30T17:12:55.593Z,77.46
2023-01-30T17:16:35.876Z,77.55
2023-01-30T17:19:42.531Z,77.42
2023-01-30T17:22:57.900Z,77.24
2023-01-30T17:26:04.600Z,77.32
2023-01-30T17:29:23.094Z,77.46
2023-01-30T17:32:35.666Z,77.74
2023-01-30T17:35:41.644Z,78.24
2023-01-30T17:38:51.533Z,79.63
2023-01-30T17:41:57.303Z,79.90
2023-01-30T17:45:04.692Z,80.88
2023-01-30T17:48:10.918Z,81.39
2023-01-30T17:51:17.549Z,82.02
2023-01-30T17:54:26.507Z,82.16
2023-01-30T17:57:33.395Z,82.13
2023-01-30T18:00:39.134Z,82.18
2023-01-30T18:03:55.125Z,82.09
2023-01-30T18:07:07.196Z,81.60
2023-01-30T18:10:22.015Z,81.10
2023-01-30T18:13:28.117Z,80.34
2023-01-30T18:16:35.264Z,80.52
2023-01-30T18:19:41.737Z,79.89
2023-01-30T18:22:49.111Z,79.41
2023-01-30T18:25:57.509Z,78.90
2023-01-30T18:29:04.093Z,78.85
2023-01-30T18:32:10.120Z,78.74
2023-01-30T18:35:16.788Z,78.90
2023-01-30T18:38:22.607Z,78.59
2023-01-30T18:41:35.484Z,78.72
2023-01-30T18:44:41.549Z,78.62
2023-01-30T18:47:57.694Z,78.55
2023-01-30T18:51:12.087Z,78.37
2023-01-30T18:54:18.928Z,78.25
2023-01-30T18:57:27.438Z,78.38
2023-01-30T19:00:34.261Z,78.49
2023-01-30T19:03:40.826Z,78.44
2023-01-30T19:06:47.606Z,78.17
2023-01-30T19:09:56.626Z,78.05
2023-01-30T19:13:18.435Z,78.29
2023-01-30T19:16:29.315Z,77.75
2023-01-30T19:19:37.298Z,77.54
2023-01-30T19:22:43.267Z,77.44
2023-01-30T19:25:57.551Z,77.27
2023-01-30T19:29:06.681Z,77.43
2023-01-30T19:32:13.456Z,77.63
2023-01-30T19:35:19.919Z,76.97
2023-01-30T19:38:26.742Z,76.87
2023-01-30T19:41:36.293Z,76.92
2023-01-30T19:44:45.794Z,76.47
2023-01-30T19:47:51.773Z,77.01
2023-01-30T19:51:01.066Z,78.00
2023-01-30T19:54:10.675Z,77.72
2023-01-30T19:57:17.371Z,78.02
2023-01-30T20:00:26.536Z,78.85
2023-01-30T20:03:41.235Z,78.86
2023-01-30T20:06:49.807Z,78.25
2023-01-30T20:09:56.630Z,77.99
2023-01-30T20:13:02.504Z,77.08
2023-01-30T20:16:15.289Z,76.44
2023-01-30T20:19:21.134Z,75.76
2023-01-30T20:22:28.196Z,75.46
2023-01-30T20:25:34.183Z,75.30
2023-01-30T20:28:41.500Z,75.23
2023-01-30T20:31:49.915Z,74.84
2023-01-30T20:34:56.544Z,74.89
2023-01-30T20:38:02.503Z,76.15
2023-01-30T20:41:13.048Z,76.86
2023-01-30T20:44:18.924Z,77.09
2023-01-30T20:47:28.194Z,77.02
2023-01-30T20:50:33.950Z,77.35
2023-01-30T20:53:43.146Z,77.46
2023-01-30T20:56:52.048Z,77.63
2023-01-30T20:59:58.677Z,77.88
2023-01-30T21:03:07.169Z,78.04
2023-01-30T21:06:14.677Z,77.58
2023-01-30T21:09:40.636Z,77.39
2023-01-30T21:12:47.313Z,77.35
2023-01-30T21:16:04.927Z,76.99
2023-01-30T21:19:17.679Z,76.50
2023-01-30T21:22:23.470Z,76.43
2023-01-30T21:25:30.234Z,76.13
2023-01-30T21:28:38.456Z,75.71
2023-01-30T21:31:49.334Z,75.79
2023-01-30T21:34:58.178Z,76.06
2023-01-30T21:38:17.344Z,75.62
2023-01-30T21:41:39.016Z,75.16
2023-01-30T21:44:48.628Z,74.77
2023-01-30T21:47:55.565Z,74.42
2023-01-30T21:51:13.663Z,73.84
2023-01-30T21:54:21.318Z,73.66
2023-01-30T21:57:28.099Z,73.05
2023-01-30T22:00:33.838Z,73.14
2023-01-30T22:03:40.553Z,73.08
2023-01-30T22:06:49.048Z,72.97
2023-01-30T22:09:55.979Z,72.60
2023-01-30T22:13:01.742Z,72.08
2023-01-30T22:16:12.404Z,71.50
2023-01-30T22:19:18.164Z,71.95
2023-01-30T22:22:28.745Z,71.70
2023-01-30T22:25:34.491Z,72.22
2023-01-30T22:28:42.308Z,72.64
2023-01-30T22:31:54.006Z,73.32
2023-01-30T22:35:00.791Z,73.38
2023-01-30T22:38:09.160Z,74.88
2023-01-30T22:41:21.011Z,77.96
2023-01-30T22:44:26.785Z,79.67
2023-01-30T22:47:33.414Z,80.59
2023-01-30T22:50:39.185Z,80.90
2023-01-30T22:53:50.880Z,81.38
2023-01-30T22:56:56.919Z,81.89
2023-01-30T23:00:07.458Z,82.18
2023-01-30T23:03:18.932Z,82.28
2023-01-30T23:06:26.829Z,82.46
2023-01-30T23:09:35.640Z,82.71
2023-01-30T23:12:54.980Z,83.06
2023-01-30T23:16:03.757Z,83.03
2023-01-30T23:19:16.145Z,83.33
2023-01-30T23:22:22.110Z,83.06
2023-01-30T23:25:31.387Z,83.23
2023-01-30T23:28:42.074Z,83.34
2023-01-30T23:31:50.572Z,83.12
2023-01-30T23:35:10.162Z,83.28
2023-01-30T23:38:22.281Z,83.77
2023-01-30T23:41:36.637Z,84.01
2023-01-30T23:44:43.361Z,83.79
2023-01-30T23:47:49.124Z,83.92
2023-01-30T23:50:55.756Z,84.10
2023-01-30T23:54:02.405Z,84.29
2023-01-30T23:57:11.621Z,84.51
